Allendale, New Jersey
Current Conditions -  °F | °C
As of 6:51 AM on Thursday 23 Oct 2014 (Local Time) from KTEB Reporting Station
Light Rain Light Rain  
Wind Chill: 52°   Ceiling: 2000
Heat Index: 52°   Visibility: 10mi
Dew Point: 46°   Wind: 10mph
Humidity: 80%   Direction: 10°N
Pressure: 29.7"   Gusts: 20mph
Location:  41.03°N, 74.14°W
Report Text: KTEB 231051Z 01009G17KT 10SM -RA OVC020 11/08 A2970 RMK AO2 RAB45 SLP058 P0000 T01110078 $
Loading
Personal Weather Stations






























Interactive Weather Map
Tropical Storm Tracking
New forecast layout! Learn more

10-Day Weather Forecast

Advertisements
Track Severe Weather on mobile